Time;durP1;ratioP1;P1;durP2;ratioP2;P2;SDS_P1;SDS_P2;PMS_P1;PMS_P2;Temp;Humidity;BMP_temperature;BMP_pressure;BME280_temperature;BME280_humidity;BME280_pressure;Samples;Min_cycle;Max_cycle;Signal;HPM_P1;HPM_P2
2022/08/09 00:02:01;;;;;;;6.80;3.73;;;;;;;;;;5133844;28;20466;-64
2022/08/09 00:04:28;;;;;;;7.63;3.97;;;;;;;;;;5134270;28;20460;-65
2022/08/09 00:06:56;;;;;;;6.30;4.60;;;;;;;;;;5134402;28;20499;-65
2022/08/09 00:09:23;;;;;;;5.23;3.50;;;;;;;;;;5133726;28;20449;-65
2022/08/09 00:11:52;;;;;;;6.57;3.43;;;;;;;;;;5133725;28;20446;-65
2022/08/09 00:14:19;;;;;;;4.03;3.63;;;;;;;;;;5135008;27;20823;-65
2022/08/09 00:16:47;;;;;;;7.17;4.23;;;;;;;;;;5137987;27;20529;-64
2022/08/09 00:19:15;;;;;;;6.80;3.87;;;;;;;;;;5137813;27;20438;-65
2022/08/09 00:21:42;;;;;;;5.90;3.80;;;;;;;;;;5137849;27;20523;-64
2022/08/09 00:24:09;;;;;;;3.30;3.10;;;;;;;;;;5137850;27;20445;-64
2022/08/09 00:26:37;;;;;;;5.67;3.40;;;;;;;;;;5137263;27;20478;-64
2022/08/09 00:29:06;;;;;;;4.93;3.90;;;;;;;;;;5137399;27;20484;-65
2022/08/09 00:31:33;;;;;;;5.03;3.53;;;;;;;;;;5137270;27;20528;-65
2022/08/09 00:34:00;;;;;;;4.30;3.60;;;;;;;;;;5137625;27;20787;-64
2022/08/09 00:36:28;;;;;;;4.37;3.80;;;;;;;;;;5137466;27;20440;-64
2022/08/09 00:38:55;;;;;;;4.00;3.60;;;;;;;;;;5137546;27;20517;-64
2022/08/09 00:41:22;;;;;;;6.47;3.73;;;;;;;;;;5137056;27;20529;-65
2022/08/09 00:43:49;;;;;;;7.20;5.03;;;;;;;;;;5137442;27;20440;-65
2022/08/09 00:46:18;;;;;;;6.67;3.97;;;;;;;;;;5136913;27;21064;-65
2022/08/09 00:48:46;;;;;;;6.40;3.50;;;;;;;;;;5137395;27;20525;-65
2022/08/09 00:51:16;;;;;;;4.30;3.70;;;;;;;;;;5137205;27;20446;-65
2022/08/09 00:53:43;;;;;;;6.37;4.00;;;;;;;;;;5137282;27;20438;-64
2022/08/09 00:56:10;;;;;;;4.60;3.70;;;;;;;;;;5137190;27;20452;-64
2022/08/09 00:58:38;;;;;;;4.53;3.60;;;;;;;;;;5137339;27;20442;-64
2022/08/09 01:01:11;;;;;;;8.10;4.63;;;;;;;;;;5137103;27;20471;-64
2022/08/09 01:03:46;;;;;;;4.93;4.20;;;;;;;;;;5137289;27;20426;-64
2022/08/09 01:06:17;;;;;;;5.30;4.40;;;;;;;;;;5136988;27;20482;-64
2022/08/09 01:08:49;;;;;;;4.70;4.30;;;;;;;;;;5137528;27;20484;-64
2022/08/09 01:11:22;;;;;;;4.53;4.07;;;;;;;;;;5136900;27;20472;-64
2022/08/09 01:13:54;;;;;;;5.73;4.50;;;;;;;;;;5136889;27;20894;-64
2022/08/09 01:16:23;;;;;;;7.60;4.10;;;;;;;;;;5137217;27;20426;-64
2022/08/09 01:18:52;;;;;;;4.07;3.77;;;;;;;;;;5136450;27;20521;-65
2022/08/09 01:21:21;;;;;;;7.80;4.70;;;;;;;;;;5136866;27;20438;-65
2022/08/09 01:23:56;;;;;;;5.77;4.27;;;;;;;;;;5136676;27;20477;-65
2022/08/09 01:26:53;;;;;;;6.77;3.73;;;;;;;;;;5136020;27;20468;-64
2022/08/09 01:29:26;;;;;;;6.03;4.07;;;;;;;;;;5053205;28;20518;-64
2022/08/09 01:31:56;;;;;;;6.60;4.90;;;;;;;;;;5120581;27;20533;-64
2022/08/09 01:34:25;;;;;;;5.03;4.20;;;;;;;;;;5136159;27;20468;-64
2022/08/09 01:36:53;;;;;;;3.97;3.67;;;;;;;;;;5136052;27;21001;-65
2022/08/09 01:39:21;;;;;;;4.90;4.20;;;;;;;;;;5136046;27;20451;-64
2022/08/09 01:41:49;;;;;;;6.93;4.30;;;;;;;;;;5136225;27;20431;-65
2022/08/09 01:44:17;;;;;;;4.63;4.10;;;;;;;;;;5136602;27;20457;-64
2022/08/09 01:46:46;;;;;;;5.43;4.20;;;;;;;;;;5136328;27;20966;-65
2022/08/09 01:49:15;;;;;;;5.53;4.30;;;;;;;;;;5136511;27;20432;-65
2022/08/09 01:51:44;;;;;;;7.97;5.47;;;;;;;;;;5135951;27;20441;-64
2022/08/09 01:54:11;;;;;;;6.70;5.00;;;;;;;;;;5135770;27;21006;-64
2022/08/09 01:56:41;;;;;;;6.57;4.63;;;;;;;;;;5135609;27;20456;-64
2022/08/09 01:59:11;;;;;;;7.80;4.37;;;;;;;;;;5135709;27;20485;-64
2022/08/09 02:01:39;;;;;;;7.27;4.63;;;;;;;;;;5135760;27;20438;-64
2022/08/09 02:04:09;;;;;;;5.70;4.70;;;;;;;;;;5135544;27;21040;-64
2022/08/09 02:09:23;;;;;;;9.33;4.43;;;;;;;;;;5135673;27;20443;-64
2022/08/09 02:11:50;;;;;;;4.93;4.50;;;;;;;;;;5135671;27;20447;-64
2022/08/09 02:14:18;;;;;;;16.83;5.17;;;;;;;;;;5135298;27;20492;-64
2022/08/09 02:16:45;;;;;;;3.93;3.63;;;;;;;;;;5135866;27;20528;-64
2022/08/09 02:19:14;;;;;;;8.33;4.87;;;;;;;;;;5135426;27;21006;-64
2022/08/09 02:21:44;;;;;;;5.60;4.60;;;;;;;;;;5135606;27;20442;-64
2022/08/09 02:24:12;;;;;;;4.60;4.20;;;;;;;;;;5135187;27;20915;-64
2022/08/09 02:26:40;;;;;;;6.70;4.73;;;;;;;;;;5134878;27;20480;-65
2022/08/09 02:29:13;;;;;;;5.93;4.93;;;;;;;;;;5135354;27;20446;-64
2022/08/09 02:31:44;;;;;;;5.80;4.90;;;;;;;;;;5135002;27;20431;-65
2022/08/09 02:34:13;;;;;;;5.70;5.20;;;;;;;;;;5135654;27;20510;-64
2022/08/09 02:36:42;;;;;;;8.43;5.43;;;;;;;;;;5134404;27;20946;-65
2022/08/09 02:39:12;;;;;;;6.20;5.17;;;;;;;;;;5135187;27;20436;-65
2022/08/09 02:41:42;;;;;;;6.77;5.20;;;;;;;;;;5135300;27;20485;-65
2022/08/09 02:44:10;;;;;;;9.50;5.20;;;;;;;;;;5135125;27;20934;-64
2022/08/09 02:46:39;;;;;;;7.07;6.03;;;;;;;;;;5134855;27;20508;-65
2022/08/09 02:49:09;;;;;;;7.33;6.10;;;;;;;;;;5135234;27;20803;-65
2022/08/09 02:51:38;;;;;;;12.17;6.17;;;;;;;;;;5135385;27;20524;-65
2022/08/09 02:54:09;;;;;;;8.90;5.90;;;;;;;;;;5134909;27;20525;-65
2022/08/09 02:56:37;;;;;;;10.50;6.77;;;;;;;;;;5135271;27;20810;-65
2022/08/09 02:59:05;;;;;;;8.33;6.27;;;;;;;;;;5135144;27;20440;-65
2022/08/09 03:01:33;;;;;;;6.20;5.60;;;;;;;;;;5134390;27;20442;-65
2022/08/09 03:04:01;;;;;;;8.27;6.53;;;;;;;;;;5135122;27;20436;-65
2022/08/09 03:06:29;;;;;;;7.53;6.50;;;;;;;;;;5134567;27;20864;-65
2022/08/09 03:08:57;;;;;;;8.83;6.50;;;;;;;;;;5134688;27;20438;-65
2022/08/09 03:11:26;;;;;;;8.13;5.83;;;;;;;;;;5134770;27;20492;-65
2022/08/09 03:13:54;;;;;;;6.40;5.80;;;;;;;;;;5134308;27;20468;-65
2022/08/09 03:16:22;;;;;;;8.93;6.47;;;;;;;;;;5134657;27;20985;-65
2022/08/09 03:18:50;;;;;;;7.30;5.70;;;;;;;;;;5134181;27;20440;-65
2022/08/09 03:21:18;;;;;;;7.20;6.07;;;;;;;;;;5134206;27;20983;-64
2022/08/09 03:23:46;;;;;;;6.87;6.23;;;;;;;;;;5134497;27;20538;-65
2022/08/09 03:26:13;;;;;;;12.60;6.73;;;;;;;;;;5134998;27;20434;-65
2022/08/09 03:28:43;;;;;;;9.97;6.10;;;;;;;;;;5134328;27;20907;-65
2022/08/09 03:31:11;;;;;;;7.93;5.60;;;;;;;;;;5134102;28;20440;-65
2022/08/09 03:33:39;;;;;;;8.37;7.20;;;;;;;;;;5134041;28;20870;-65
2022/08/09 03:36:07;;;;;;;9.57;7.30;;;;;;;;;;5134060;28;20531;-64
2022/08/09 03:38:34;;;;;;;12.03;6.97;;;;;;;;;;5134302;28;20447;-64
2022/08/09 03:41:02;;;;;;;8.00;7.30;;;;;;;;;;5134370;28;20524;-64
2022/08/09 03:43:29;;;;;;;7.53;6.83;;;;;;;;;;5133949;28;20533;-64
2022/08/09 03:45:57;;;;;;;7.93;7.10;;;;;;;;;;5134030;28;20442;-73
2022/08/09 03:48:25;;;;;;;9.83;6.60;;;;;;;;;;5135404;27;20553;-68
2022/08/09 03:50:54;;;;;;;9.10;6.80;;;;;;;;;;5138173;27;20935;-68
2022/08/09 03:53:21;;;;;;;9.77;7.10;;;;;;;;;;5138499;27;20478;-67
2022/08/09 03:55:48;;;;;;;12.17;7.00;;;;;;;;;;5138099;27;20473;-67
2022/08/09 03:58:16;;;;;;;8.50;6.60;;;;;;;;;;5138135;27;20451;-67
2022/08/09 04:00:43;;;;;;;8.20;7.40;;;;;;;;;;5138332;27;20441;-68
2022/08/09 04:03:12;;;;;;;11.97;7.10;;;;;;;;;;5138203;27;20466;-67
2022/08/09 04:05:39;;;;;;;9.80;7.80;;;;;;;;;;5138494;27;20442;-67
2022/08/09 04:08:06;;;;;;;7.77;7.03;;;;;;;;;;5137957;27;20480;-67
2022/08/09 04:10:34;;;;;;;9.23;7.03;;;;;;;;;;5138132;27;20448;-66
2022/08/09 04:13:08;;;;;;;10.00;7.00;;;;;;;;;;5137955;27;20926;-67
2022/08/09 04:15:36;;;;;;;9.90;7.27;;;;;;;;;;5137800;27;20522;-67
2022/08/09 04:18:03;;;;;;;13.50;7.80;;;;;;;;;;5137926;27;20441;-67
2022/08/09 04:20:32;;;;;;;10.97;7.73;;;;;;;;;;5138019;27;20433;-67
2022/08/09 04:22:59;;;;;;;12.80;7.50;;;;;;;;;;5137734;27;20437;-67
2022/08/09 04:25:26;;;;;;;10.90;7.80;;;;;;;;;;5137733;27;20445;-66
2022/08/09 04:27:55;;;;;;;8.67;7.73;;;;;;;;;;5137259;27;20480;-67
2022/08/09 04:30:23;;;;;;;8.07;6.70;;;;;;;;;;5137392;27;20439;-67
2022/08/09 04:32:50;;;;;;;9.00;8.20;;;;;;;;;;5137302;27;20451;-67
2022/08/09 04:35:17;;;;;;;8.87;6.90;;;;;;;;;;5137719;27;20467;-67
2022/08/09 04:37:46;;;;;;;11.83;7.30;;;;;;;;;;5138043;27;20867;-67
2022/08/09 04:40:14;;;;;;;10.50;7.47;;;;;;;;;;5137256;27;20537;-67
2022/08/09 04:42:42;;;;;;;14.53;8.90;;;;;;;;;;5137481;27;20443;-67
2022/08/09 04:45:09;;;;;;;8.50;7.43;;;;;;;;;;5137596;27;20446;-66
2022/08/09 04:47:37;;;;;;;10.23;7.27;;;;;;;;;;5137497;27;20473;-66
2022/08/09 04:50:04;;;;;;;9.77;7.40;;;;;;;;;;5136882;27;20430;-66
2022/08/09 04:52:31;;;;;;;8.10;7.30;;;;;;;;;;5137289;27;20442;-66
2022/08/09 04:55:02;;;;;;;10.67;7.60;;;;;;;;;;5137132;27;20445;-67
2022/08/09 04:57:29;;;;;;;11.37;8.60;;;;;;;;;;5137021;27;20465;-67
2022/08/09 04:59:57;;;;;;;8.83;6.67;;;;;;;;;;5136188;27;20442;-67
2022/08/09 05:02:25;;;;;;;10.57;7.70;;;;;;;;;;5136795;27;20442;-67
2022/08/09 05:04:52;;;;;;;9.50;7.90;;;;;;;;;;5137046;27;20525;-68
2022/08/09 05:07:19;;;;;;;12.53;8.40;;;;;;;;;;5137618;27;20907;-67
2022/08/09 05:09:47;;;;;;;12.80;7.47;;;;;;;;;;5137040;27;20446;-66
2022/08/09 05:12:15;;;;;;;9.70;8.30;;;;;;;;;;5137317;27;20449;-67
2022/08/09 05:14:42;;;;;;;9.47;7.90;;;;;;;;;;5136188;27;20501;-67
2022/08/09 05:17:10;;;;;;;9.57;7.10;;;;;;;;;;5136816;27;20441;-67
2022/08/09 05:19:37;;;;;;;11.10;10.00;;;;;;;;;;5136363;27;20453;-67
2022/08/09 05:22:04;;;;;;;12.90;8.27;;;;;;;;;;5136766;27;20434;-65
2022/08/09 05:24:31;;;;;;;7.93;7.23;;;;;;;;;;5136226;27;20964;-66
2022/08/09 05:26:58;;;;;;;11.60;7.20;;;;;;;;;;5136675;27;20438;-68
2022/08/09 05:29:27;;;;;;;9.07;7.97;;;;;;;;;;5136251;27;20434;-66
2022/08/09 05:31:58;;;;;;;8.50;7.60;;;;;;;;;;5136199;27;20537;-65
2022/08/09 05:34:26;;;;;;;8.00;7.20;;;;;;;;;;5136174;27;20430;-65
2022/08/09 05:36:55;;;;;;;8.40;6.73;;;;;;;;;;5136091;27;20444;-66
2022/08/09 05:39:22;;;;;;;7.80;7.00;;;;;;;;;;5136286;27;20443;-66
2022/08/09 05:41:49;;;;;;;8.13;7.33;;;;;;;;;;5136401;27;20498;-65
2022/08/09 05:44:17;;;;;;;17.67;7.60;;;;;;;;;;5135981;27;20493;-65
2022/08/09 05:46:45;;;;;;;8.43;7.17;;;;;;;;;;5136814;27;20871;-66
2022/08/09 05:49:12;;;;;;;7.77;7.00;;;;;;;;;;5135658;27;20470;-66
2022/08/09 05:51:40;;;;;;;8.87;7.00;;;;;;;;;;5135871;27;20440;-65
2022/08/09 05:54:07;;;;;;;9.77;7.60;;;;;;;;;;5135971;27;20444;-66
2022/08/09 05:56:34;;;;;;;11.73;7.50;;;;;;;;;;5135697;27;20528;-66
2022/08/09 05:59:01;;;;;;;9.03;7.80;;;;;;;;;;5135677;27;20549;-66
2022/08/09 06:01:29;;;;;;;11.00;7.67;;;;;;;;;;5136024;27;20791;-65
2022/08/09 06:03:57;;;;;;;8.67;7.90;;;;;;;;;;5135893;27;20433;-65
2022/08/09 06:06:25;;;;;;;8.60;6.60;;;;;;;;;;5135889;27;20525;-66
2022/08/09 06:08:52;;;;;;;7.27;6.57;;;;;;;;;;5135789;27;20595;-66
2022/08/09 06:11:19;;;;;;;8.53;7.03;;;;;;;;;;5135645;27;20494;-66
2022/08/09 06:13:47;;;;;;;7.63;6.43;;;;;;;;;;5135336;27;20971;-65
2022/08/09 06:16:14;;;;;;;7.37;6.63;;;;;;;;;;5135235;27;20913;-66
2022/08/09 06:18:41;;;;;;;8.00;7.20;;;;;;;;;;5135690;27;20449;-66
2022/08/09 06:21:10;;;;;;;8.97;6.87;;;;;;;;;;5135420;27;20434;-65
2022/08/09 06:23:37;;;;;;;8.90;7.90;;;;;;;;;;5135171;27;20439;-65
2022/08/09 06:26:04;;;;;;;7.30;6.40;;;;;;;;;;5135401;27;20530;-65
2022/08/09 06:28:32;;;;;;;9.03;6.27;;;;;;;;;;5135717;27;20477;-66
2022/08/09 06:30:59;;;;;;;9.00;6.63;;;;;;;;;;5134991;27;21010;-66
2022/08/09 06:33:26;;;;;;;10.73;6.50;;;;;;;;;;5135904;27;20525;-65
2022/08/09 06:35:53;;;;;;;6.57;5.40;;;;;;;;;;5135086;27;20447;-66
2022/08/09 06:38:22;;;;;;;6.13;5.50;;;;;;;;;;5135272;27;20438;-65
2022/08/09 06:40:49;;;;;;;6.30;5.43;;;;;;;;;;5134809;27;20438;-65
2022/08/09 06:43:16;;;;;;;18.93;5.53;;;;;;;;;;5135144;27;20495;-66
2022/08/09 06:45:43;;;;;;;10.53;5.87;;;;;;;;;;5134707;27;20486;-65
2022/08/09 06:48:11;;;;;;;9.57;5.37;;;;;;;;;;5134536;27;20560;-65
2022/08/09 06:50:38;;;;;;;8.70;5.90;;;;;;;;;;5134824;27;20533;-66
2022/08/09 06:53:05;;;;;;;7.13;5.60;;;;;;;;;;5135157;27;20524;-65
2022/08/09 06:55:34;;;;;;;6.47;4.90;;;;;;;;;;5135026;27;20438;-66
2022/08/09 06:58:01;;;;;;;5.50;4.70;;;;;;;;;;5134846;27;20503;-66
2022/08/09 07:00:29;;;;;;;6.90;5.17;;;;;;;;;;5134369;27;20533;-66
2022/08/09 07:02:56;;;;;;;6.50;5.27;;;;;;;;;;5134949;27;20441;-66
2022/08/09 07:05:24;;;;;;;5.13;4.43;;;;;;;;;;5134681;27;20446;-65
2022/08/09 07:07:53;;;;;;;6.40;4.97;;;;;;;;;;5134407;27;20453;-66
2022/08/09 07:10:20;;;;;;;10.17;4.73;;;;;;;;;;5134373;27;20460;-66
2022/08/09 07:12:49;;;;;;;5.97;5.10;;;;;;;;;;5134701;27;20867;-66
2022/08/09 07:15:17;;;;;;;5.87;4.90;;;;;;;;;;5134591;27;20476;-66
2022/08/09 07:17:44;;;;;;;7.07;5.30;;;;;;;;;;5134653;27;20454;-65
2022/08/09 07:20:11;;;;;;;5.40;4.90;;;;;;;;;;5134792;27;20861;-65
2022/08/09 07:22:38;;;;;;;6.10;4.90;;;;;;;;;;5134065;27;20465;-65
2022/08/09 07:25:06;;;;;;;6.90;5.10;;;;;;;;;;5134421;27;20446;-65
2022/08/09 07:27:33;;;;;;;4.50;3.90;;;;;;;;;;5134586;27;20529;-65
2022/08/09 07:30:03;;;;;;;8.10;5.13;;;;;;;;;;5134369;28;20560;-65
2022/08/09 07:32:30;;;;;;;5.03;4.47;;;;;;;;;;5134258;28;20483;-65
2022/08/09 07:34:58;;;;;;;4.67;4.10;;;;;;;;;;5134645;28;20952;-65
2022/08/09 07:37:25;;;;;;;7.87;4.50;;;;;;;;;;5134212;28;20525;-65
2022/08/09 07:39:52;;;;;;;5.00;4.53;;;;;;;;;;5134427;28;20545;-66
2022/08/09 07:42:22;;;;;;;5.10;4.60;;;;;;;;;;5134249;28;20532;-66
2022/08/09 07:44:49;;;;;;;5.07;3.50;;;;;;;;;;5134863;28;20549;-66
2022/08/09 07:47:18;;;;;;;9.03;4.60;;;;;;;;;;5134248;28;20439;-66
2022/08/09 07:49:45;;;;;;;5.30;3.80;;;;;;;;;;5134520;28;20829;-66
2022/08/09 07:52:12;;;;;;;5.17;3.90;;;;;;;;;;5134328;28;20469;-65
2022/08/09 07:54:40;;;;;;;7.10;4.20;;;;;;;;;;5133944;28;20467;-65
2022/08/09 07:57:07;;;;;;;5.80;3.83;;;;;;;;;;5134302;28;20443;-66
2022/08/09 07:59:34;;;;;;;7.33;4.00;;;;;;;;;;5134284;28;20443;-65
2022/08/09 08:02:02;;;;;;;7.23;3.90;;;;;;;;;;5134107;28;20526;-66
2022/08/09 08:04:30;;;;;;;4.20;3.70;;;;;;;;;;5134368;28;20534;-65
2022/08/09 08:06:57;;;;;;;6.40;3.83;;;;;;;;;;5134078;28;20563;-65
2022/08/09 08:09:25;;;;;;;5.43;3.53;;;;;;;;;;5134299;28;20476;-65
2022/08/09 08:11:52;;;;;;;7.10;3.70;;;;;;;;;;5133690;28;20472;-65
2022/08/09 08:14:19;;;;;;;3.43;3.13;;;;;;;;;;5133789;28;20502;-65
2022/08/09 08:16:46;;;;;;;6.47;3.17;;;;;;;;;;5134038;28;20790;-65
2022/08/09 08:19:13;;;;;;;3.97;3.47;;;;;;;;;;5134161;28;20849;-66
2022/08/09 08:21:42;;;;;;;4.10;3.80;;;;;;;;;;5133807;28;20440;-66
2022/08/09 08:24:09;;;;;;;4.03;3.40;;;;;;;;;;5133669;28;21005;-65
2022/08/09 08:26:36;;;;;;;3.80;3.50;;;;;;;;;;5133931;28;20794;-65
2022/08/09 08:29:04;;;;;;;5.67;3.57;;;;;;;;;;5133846;28;20476;-65
2022/08/09 08:31:31;;;;;;;9.33;3.07;;;;;;;;;;5133813;28;20822;-66
2022/08/09 08:33:58;;;;;;;4.80;3.50;;;;;;;;;;5134307;27;20444;-65
2022/08/09 08:36:26;;;;;;;5.03;3.00;;;;;;;;;;5136801;27;20932;-65
2022/08/09 08:38:55;;;;;;;5.53;3.20;;;;;;;;;;5137548;27;20558;-66
2022/08/09 08:41:22;;;;;;;4.63;3.63;;;;;;;;;;5137089;27;20559;-66
2022/08/09 08:43:49;;;;;;;4.80;3.17;;;;;;;;;;5137346;27;20434;-67
2022/08/09 08:46:18;;;;;;;3.67;3.03;;;;;;;;;;5137639;27;20479;-66
2022/08/09 08:48:45;;;;;;;6.30;3.20;;;;;;;;;;5137360;27;20559;-66
2022/08/09 08:51:13;;;;;;;3.40;3.10;;;;;;;;;;5137654;27;20445;-66
2022/08/09 08:53:40;;;;;;;4.33;3.53;;;;;;;;;;5136980;27;20456;-66
2022/08/09 08:56:09;;;;;;;3.37;2.90;;;;;;;;;;5136915;27;20531;-65
2022/08/09 08:58:36;;;;;;;3.27;2.97;;;;;;;;;;5137426;27;20935;-67
2022/08/09 09:01:04;;;;;;;5.90;3.60;;;;;;;;;;5137345;27;20925;-66
2022/08/09 09:03:33;;;;;;;6.33;3.70;;;;;;;;;;5137050;27;20445;-65
2022/08/09 09:06:01;;;;;;;4.17;3.13;;;;;;;;;;5137317;27;20430;-66
2022/08/09 09:08:30;;;;;;;5.70;3.27;;;;;;;;;;5137034;27;20502;-66
2022/08/09 09:10:58;;;;;;;4.00;3.60;;;;;;;;;;5136727;27;20477;-65
2022/08/09 09:13:26;;;;;;;9.03;3.03;;;;;;;;;;5136506;27;20937;-66
2022/08/09 09:15:55;;;;;;;3.00;2.60;;;;;;;;;;5136978;27;20501;-65
2022/08/09 09:18:22;;;;;;;6.13;3.10;;;;;;;;;;5136756;27;20441;-66
2022/08/09 09:20:49;;;;;;;4.87;3.03;;;;;;;;;;5136403;27;20445;-65
2022/08/09 09:23:17;;;;;;;4.70;2.80;;;;;;;;;;5136869;27;20525;-66
2022/08/09 09:25:44;;;;;;;5.03;3.90;;;;;;;;;;5136923;27;20438;-66
2022/08/09 09:28:13;;;;;;;3.70;3.40;;;;;;;;;;5136313;27;20942;-66
2022/08/09 09:30:54;;;;;;;6.20;2.93;;;;;;;;;;5136327;27;20478;-66
2022/08/09 09:33:21;;;;;;;4.60;3.40;;;;;;;;;;5136736;27;20430;-66
2022/08/09 09:35:52;;;;;;;3.57;3.20;;;;;;;;;;5136658;27;20513;-66
2022/08/09 09:38:22;;;;;;;3.37;3.07;;;;;;;;;;5136705;27;20445;-66
2022/08/09 09:40:49;;;;;;;8.67;3.57;;;;;;;;;;5136373;27;20506;-66
2022/08/09 09:43:20;;;;;;;6.50;2.97;;;;;;;;;;5136052;27;20533;-65
2022/08/09 09:45:48;;;;;;;4.17;3.67;;;;;;;;;;5136228;27;20454;-65
2022/08/09 09:48:17;;;;;;;3.83;3.40;;;;;;;;;;5135908;27;20442;-66
2022/08/09 09:50:45;;;;;;;7.07;4.07;;;;;;;;;;5136226;27;20516;-65
2022/08/09 09:53:16;;;;;;;5.63;3.27;;;;;;;;;;5136229;27;20834;-66
2022/08/09 09:55:54;;;;;;;4.47;3.20;;;;;;;;;;5135767;27;20855;-66
2022/08/09 09:58:21;;;;;;;3.40;2.70;;;;;;;;;;5135918;27;20445;-65
2022/08/09 10:00:49;;;;;;;2.70;2.50;;;;;;;;;;5136025;27;20473;-67
2022/08/09 10:03:18;;;;;;;4.57;3.80;;;;;;;;;;5135709;27;20432;-66
2022/08/09 10:05:58;;;;;;;5.57;4.10;;;;;;;;;;5136647;27;20542;-66
2022/08/09 10:08:25;;;;;;;3.47;3.00;;;;;;;;;;5135434;27;20439;-65
2022/08/09 10:10:52;;;;;;;3.30;3.00;;;;;;;;;;5135856;27;20556;-65
2022/08/09 10:13:19;;;;;;;3.50;2.87;;;;;;;;;;5135825;27;20880;-66
2022/08/09 10:15:50;;;;;;;7.80;3.60;;;;;;;;;;5135422;27;20568;-66
2022/08/09 10:18:19;;;;;;;5.30;2.77;;;;;;;;;;5135749;27;20441;-66
2022/08/09 10:20:46;;;;;;;3.80;2.63;;;;;;;;;;5134856;27;20646;-66
2022/08/09 10:23:15;;;;;;;3.10;2.80;;;;;;;;;;5134293;27;20533;-66
2022/08/09 10:25:42;;;;;;;3.50;2.70;;;;;;;;;;5135517;27;20442;-66
2022/08/09 10:28:09;;;;;;;5.50;2.73;;;;;;;;;;5135125;27;20520;-66
2022/08/09 10:30:37;;;;;;;4.27;2.90;;;;;;;;;;5135351;27;20484;-65
2022/08/09 10:33:04;;;;;;;3.10;2.80;;;;;;;;;;5135026;27;20439;-66
2022/08/09 10:35:33;;;;;;;5.67;2.90;;;;;;;;;;5135376;27;20498;-66
2022/08/09 10:38:00;;;;;;;3.40;2.60;;;;;;;;;;5135029;27;20527;-66
2022/08/09 10:40:27;;;;;;;4.17;2.87;;;;;;;;;;5135176;27;20492;-66
2022/08/09 10:42:55;;;;;;;3.57;3.27;;;;;;;;;;5135227;27;20519;-66
2022/08/09 10:45:23;;;;;;;3.60;3.30;;;;;;;;;;5133606;27;20912;-66
2022/08/09 10:47:58;;;;;;;7.03;3.07;;;;;;;;;;5134407;27;20444;-66
2022/08/09 10:51:05;;;;;;;5.40;2.97;;;;;;;;;;5135165;27;20465;-66
2022/08/09 10:53:28;;;;;;;3.53;3.23;;;;;;;;;;5134619;27;20439;-66
2022/08/09 10:56:10;;;;;;;2.83;2.60;;;;;;;;;;5134540;27;20482;-66
2022/08/09 10:58:37;;;;;;;5.80;2.97;;;;;;;;;;5133690;27;20529;-65
2022/08/09 11:01:05;;;;;;;6.70;2.93;;;;;;;;;;5134401;27;20435;-66
2022/08/09 11:03:32;;;;;;;4.60;2.80;;;;;;;;;;5134911;27;20861;-66
2022/08/09 11:06:19;;;;;;;6.03;2.87;;;;;;;;;;5134773;27;20444;-66
2022/08/09 11:08:48;;;;;;;8.43;3.37;;;;;;;;;;5134227;27;20507;-66
2022/08/09 11:11:16;;;;;;;5.80;2.80;;;;;;;;;;5135516;27;20471;-66
2022/08/09 11:13:43;;;;;;;4.70;2.67;;;;;;;;;;5134278;27;20489;-66
2022/08/09 11:16:25;;;;;;;4.73;2.60;;;;;;;;;;5134515;27;20442;-66
2022/08/09 11:18:53;;;;;;;3.40;2.90;;;;;;;;;;5131392;27;20492;-66
2022/08/09 11:21:35;;;;;;;5.60;2.97;;;;;;;;;;5133821;27;20446;-66
2022/08/09 11:24:04;;;;;;;4.73;2.90;;;;;;;;;;5133290;27;20438;-66
2022/08/09 11:26:41;;;;;;;4.43;2.63;;;;;;;;;;5134685;27;20466;-67
2022/08/09 11:29:08;;;;;;;5.07;3.17;;;;;;;;;;5133665;27;20443;-66
2022/08/09 11:31:56;;;;;;;4.37;2.50;;;;;;;;;;5134674;28;20447;-66
2022/08/09 11:34:27;;;;;;;3.07;2.50;;;;;;;;;;5127493;28;20534;-66
2022/08/09 11:37:01;;;;;;;3.33;3.03;;;;;;;;;;5134075;28;20470;-65
2022/08/09 11:39:29;;;;;;;3.10;2.60;;;;;;;;;;5134163;28;20427;-66
2022/08/09 11:41:57;;;;;;;3.60;2.63;;;;;;;;;;5134047;28;20495;-65
2022/08/09 11:44:39;;;;;;;2.77;2.47;;;;;;;;;;5134635;28;20803;-66
2022/08/09 11:47:07;;;;;;;9.23;3.03;;;;;;;;;;5134062;27;20480;-65
2022/08/09 11:49:53;;;;;;;8.27;3.10;;;;;;;;;;5134439;28;20475;-66
2022/08/09 11:52:24;;;;;;;2.80;2.60;;;;;;;;;;5134311;28;20569;-66
2022/08/09 11:55:06;;;;;;;4.13;2.60;;;;;;;;;;5133944;28;20427;-66
2022/08/09 11:57:38;;;;;;;3.23;2.90;;;;;;;;;;5134002;27;20525;-66
2022/08/09 12:00:08;;;;;;;2.93;2.60;;;;;;;;;;5133863;28;20480;-66
2022/08/09 12:02:38;;;;;;;2.97;2.77;;;;;;;;;;5134160;28;20456;-66
2022/08/09 12:05:06;;;;;;;2.50;2.40;;;;;;;;;;5134053;28;20917;-67
2022/08/09 12:07:33;;;;;;;5.43;3.03;;;;;;;;;;5133851;28;20856;-66
2022/08/09 12:10:01;;;;;;;6.43;3.63;;;;;;;;;;5136573;27;20563;-66
2022/08/09 12:12:28;;;;;;;2.73;2.47;;;;;;;;;;5137868;27;20445;-66
2022/08/09 12:14:57;;;;;;;4.10;2.70;;;;;;;;;;5138114;27;20564;-66
2022/08/09 12:17:24;;;;;;;3.90;2.53;;;;;;;;;;5138138;27;20847;-66
2022/08/09 12:19:51;;;;;;;2.80;2.60;;;;;;;;;;5138091;27;20439;-66
2022/08/09 12:22:19;;;;;;;3.80;2.97;;;;;;;;;;5138157;27;20521;-66
2022/08/09 12:24:47;;;;;;;3.20;2.90;;;;;;;;;;5137866;27;20510;-66
2022/08/09 12:27:19;;;;;;;3.97;3.07;;;;;;;;;;5137574;27;20533;-66
2022/08/09 12:29:54;;;;;;;2.93;2.40;;;;;;;;;;5137873;27;20897;-66
2022/08/09 12:32:25;;;;;;;5.20;3.87;;;;;;;;;;5137744;27;20443;-66
2022/08/09 12:34:52;;;;;;;3.00;2.67;;;;;;;;;;5138074;27;20461;-66
2022/08/09 12:37:30;;;;;;;2.80;2.60;;;;;;;;;;5137316;27;20930;-65
2022/08/09 12:40:01;;;;;;;3.17;2.47;;;;;;;;;;5137772;27;20508;-66
2022/08/09 12:42:29;;;;;;;4.30;3.33;;;;;;;;;;5137188;27;20441;-66
2022/08/09 12:44:56;;;;;;;3.10;2.80;;;;;;;;;;5137534;27;20456;-65
2022/08/09 12:47:25;;;;;;;6.93;3.20;;;;;;;;;;5137517;27;20470;-66
2022/08/09 12:52:38;;;;;;;4.90;2.83;;;;;;;;;;5137273;27;20393;-66
2022/08/09 12:55:06;;;;;;;4.53;2.50;;;;;;;;;;5136764;27;20443;-69
2022/08/09 12:57:40;;;;;;;15.13;3.40;;;;;;;;;;5137008;27;20437;-64
2022/08/09 13:00:11;;;;;;;2.53;2.33;;;;;;;;;;5137099;27;20445;-64
2022/08/09 13:02:53;;;;;;;11.67;3.30;;;;;;;;;;5137173;27;20430;-64
2022/08/09 13:05:23;;;;;;;4.20;2.40;;;;;;;;;;5134304;27;20538;-65
2022/08/09 13:08:09;;;;;;;4.10;2.50;;;;;;;;;;5137004;27;20805;-65
2022/08/09 13:10:44;;;;;;;2.40;2.20;;;;;;;;;;5136883;27;20818;-65
2022/08/09 13:13:11;;;;;;;5.53;2.90;;;;;;;;;;5136632;27;20478;-65
2022/08/09 13:15:51;;;;;;;5.60;2.93;;;;;;;;;;5137129;27;20485;-64
2022/08/09 13:18:18;;;;;;;3.47;2.13;;;;;;;;;;5136642;27;20467;-65
2022/08/09 13:20:47;;;;;;;4.73;2.80;;;;;;;;;;5136006;27;20529;-64
2022/08/09 13:23:14;;;;;;;4.13;2.73;;;;;;;;;;5136768;27;20433;-64
2022/08/09 13:25:42;;;;;;;7.47;2.70;;;;;;;;;;5136598;27;20491;-64
2022/08/09 13:28:10;;;;;;;3.67;2.83;;;;;;;;;;5136764;27;20483;-65
2022/08/09 13:30:37;;;;;;;5.00;2.70;;;;;;;;;;5136686;27;20480;-64
2022/08/09 13:33:05;;;;;;;5.23;3.50;;;;;;;;;;5136604;27;20474;-64
2022/08/09 13:35:32;;;;;;;7.03;2.60;;;;;;;;;;5135959;27;20447;-65
2022/08/09 13:38:01;;;;;;;7.50;2.80;;;;;;;;;;5136573;27;20880;-64
2022/08/09 13:40:28;;;;;;;3.50;2.50;;;;;;;;;;5136192;27;20527;-64
2022/08/09 13:42:55;;;;;;;3.83;2.63;;;;;;;;;;5136201;27;20447;-64
2022/08/09 13:45:22;;;;;;;5.00;2.70;;;;;;;;;;5136367;27;20519;-64
2022/08/09 13:47:50;;;;;;;2.70;2.50;;;;;;;;;;5135951;27;20526;-64
2022/08/09 13:50:18;;;;;;;5.67;2.40;;;;;;;;;;5135627;27;20562;-66
2022/08/09 13:52:46;;;;;;;2.93;2.63;;;;;;;;;;5136019;27;20438;-64
2022/08/09 13:55:15;;;;;;;2.67;2.57;;;;;;;;;;5135879;27;20783;-65
2022/08/09 13:57:45;;;;;;;10.20;2.47;;;;;;;;;;5135971;27;20446;-64
2022/08/09 14:00:13;;;;;;;3.90;2.60;;;;;;;;;;5135834;27;20431;-64
2022/08/09 14:02:41;;;;;;;3.10;2.20;;;;;;;;;;5135488;27;20521;-64
2022/08/09 14:05:09;;;;;;;3.90;2.30;;;;;;;;;;5135503;27;20444;-65
2022/08/09 14:07:36;;;;;;;3.53;2.67;;;;;;;;;;5135832;27;20495;-64
2022/08/09 14:10:04;;;;;;;3.90;3.00;;;;;;;;;;5136321;27;20831;-66
2022/08/09 14:12:32;;;;;;;3.00;2.70;;;;;;;;;;5135347;27;20477;-64
2022/08/09 14:14:59;;;;;;;5.93;2.40;;;;;;;;;;5135079;27;20458;-65
2022/08/09 14:17:27;;;;;;;5.03;2.63;;;;;;;;;;5135396;27;20497;-63
2022/08/09 14:19:55;;;;;;;2.47;2.27;;;;;;;;;;5135553;27;20855;-64
2022/08/09 14:22:22;;;;;;;3.67;2.90;;;;;;;;;;5135277;27;20806;-64
2022/08/09 14:24:49;;;;;;;3.67;2.80;;;;;;;;;;5135149;27;20530;-64
2022/08/09 14:27:17;;;;;;;5.70;2.90;;;;;;;;;;5135216;27;20457;-64
2022/08/09 14:29:45;;;;;;;2.80;2.53;;;;;;;;;;5135288;27;20446;-64
2022/08/09 14:32:12;;;;;;;4.43;2.67;;;;;;;;;;5134423;27;20886;-64
2022/08/09 14:34:40;;;;;;;6.43;3.33;;;;;;;;;;5135341;27;20443;-64
2022/08/09 14:37:08;;;;;;;4.87;2.60;;;;;;;;;;5134881;27;20538;-64
2022/08/09 14:39:36;;;;;;;2.50;2.30;;;;;;;;;;5135381;27;20470;-64
2022/08/09 14:42:03;;;;;;;3.10;2.23;;;;;;;;;;5135394;27;20498;-64
2022/08/09 14:44:30;;;;;;;3.63;3.33;;;;;;;;;;5135222;27;20748;-64
2022/08/09 14:46:59;;;;;;;3.93;3.17;;;;;;;;;;5134918;27;20535;-64
2022/08/09 14:49:26;;;;;;;3.37;2.63;;;;;;;;;;5134647;27;20509;-64
2022/08/09 14:51:53;;;;;;;4.53;2.20;;;;;;;;;;5134833;27;20559;-64
2022/08/09 14:54:20;;;;;;;6.83;2.90;;;;;;;;;;5134868;27;20931;-64
2022/08/09 14:56:48;;;;;;;2.60;2.40;;;;;;;;;;5134268;27;20510;-68